sensor_id;sensor_type;location;lat;lon;timestamp;P1;durP1;ratioP1;P2;durP2;ratioP2
8665;SDS011;4370;48.916;8.380;2023-02-22T00:00:19;16.47;;;6.40;;
8665;SDS011;4370;48.916;8.380;2023-02-22T00:02:56;9.57;;;5.83;;
8665;SDS011;4370;48.916;8.380;2023-02-22T00:05:23;8.40;;;5.20;;
8665;SDS011;4370;48.916;8.380;2023-02-22T00:07:50;8.37;;;5.60;;
8665;SDS011;4370;48.916;8.380;2023-02-22T00:10:16;10.60;;;5.20;;
8665;SDS011;4370;48.916;8.380;2023-02-22T00:12:49;10.47;;;4.47;;
8665;SDS011;4370;48.916;8.380;2023-02-22T00:15:17;6.27;;;4.40;;
8665;SDS011;4370;48.916;8.380;2023-02-22T00:17:43;7.00;;;4.20;;
8665;SDS011;4370;48.916;8.380;2023-02-22T00:20:10;8.17;;;4.73;;
8665;SDS011;4370;48.916;8.380;2023-02-22T00:22:41;8.57;;;3.73;;
8665;SDS011;4370;48.916;8.380;2023-02-22T00:25:08;6.17;;;3.70;;
8665;SDS011;4370;48.916;8.380;2023-02-22T00:27:35;7.13;;;3.30;;
8665;SDS011;4370;48.916;8.380;2023-02-22T00:30:02;5.80;;;3.77;;
8665;SDS011;4370;48.916;8.380;2023-02-22T00:32:31;6.30;;;3.60;;
8665;SDS011;4370;48.916;8.380;2023-02-22T00:34:58;7.03;;;4.13;;
8665;SDS011;4370;48.916;8.380;2023-02-22T00:37:23;8.70;;;3.50;;
8665;SDS011;4370;48.916;8.380;2023-02-22T00:39:50;7.97;;;3.80;;
8665;SDS011;4370;48.916;8.380;2023-02-22T00:42:16;5.47;;;3.37;;
8665;SDS011;4370;48.916;8.380;2023-02-22T00:44:42;4.93;;;3.53;;
8665;SDS011;4370;48.916;8.380;2023-02-22T00:47:09;6.07;;;3.60;;
8665;SDS011;4370;48.916;8.380;2023-02-22T00:49:35;5.00;;;3.60;;
8665;SDS011;4370;48.916;8.380;2023-02-22T00:52:01;4.17;;;3.03;;
8665;SDS011;4370;48.916;8.380;2023-02-22T00:54:28;4.63;;;3.00;;
8665;SDS011;4370;48.916;8.380;2023-02-22T00:56:54;4.37;;;3.20;;
8665;SDS011;4370;48.916;8.380;2023-02-22T00:59:22;3.57;;;2.80;;
8665;SDS011;4370;48.916;8.380;2023-02-22T01:01:48;5.67;;;3.23;;
8665;SDS011;4370;48.916;8.380;2023-02-22T01:04:14;4.80;;;3.00;;
8665;SDS011;4370;48.916;8.380;2023-02-22T01:06:40;5.67;;;3.63;;
8665;SDS011;4370;48.916;8.380;2023-02-22T01:09:05;6.53;;;3.03;;
8665;SDS011;4370;48.916;8.380;2023-02-22T01:11:31;8.27;;;3.60;;
8665;SDS011;4370;48.916;8.380;2023-02-22T01:13:57;5.53;;;3.43;;
8665;SDS011;4370;48.916;8.380;2023-02-22T01:16:24;6.60;;;3.70;;
8665;SDS011;4370;48.916;8.380;2023-02-22T01:18:50;7.00;;;3.80;;
8665;SDS011;4370;48.916;8.380;2023-02-22T01:21:16;5.60;;;4.27;;
8665;SDS011;4370;48.916;8.380;2023-02-22T01:23:45;7.73;;;4.50;;
8665;SDS011;4370;48.916;8.380;2023-02-22T01:26:11;8.50;;;4.93;;
8665;SDS011;4370;48.916;8.380;2023-02-22T01:28:37;8.37;;;5.30;;
8665;SDS011;4370;48.916;8.380;2023-02-22T01:31:03;5.87;;;4.23;;
8665;SDS011;4370;48.916;8.380;2023-02-22T01:33:30;8.97;;;4.43;;
8665;SDS011;4370;48.916;8.380;2023-02-22T01:35:56;6.10;;;3.97;;
8665;SDS011;4370;48.916;8.380;2023-02-22T01:38:23;9.27;;;4.63;;
8665;SDS011;4370;48.916;8.380;2023-02-22T01:40:49;11.60;;;6.57;;
8665;SDS011;4370;48.916;8.380;2023-02-22T01:45:47;6.67;;;4.97;;
8665;SDS011;4370;48.916;8.380;2023-02-22T01:48:21;6.47;;;4.57;;
8665;SDS011;4370;48.916;8.380;2023-02-22T01:51:01;6.80;;;4.20;;
8665;SDS011;4370;48.916;8.380;2023-02-22T01:53:35;6.80;;;4.23;;
8665;SDS011;4370;48.916;8.380;2023-02-22T01:56:02;6.57;;;4.20;;
8665;SDS011;4370;48.916;8.380;2023-02-22T01:58:29;5.53;;;3.93;;
8665;SDS011;4370;48.916;8.380;2023-02-22T02:00:57;6.13;;;4.03;;
8665;SDS011;4370;48.916;8.380;2023-02-22T02:03:26;6.53;;;4.90;;
8665;SDS011;4370;48.916;8.380;2023-02-22T02:05:55;6.17;;;3.97;;
8665;SDS011;4370;48.916;8.380;2023-02-22T02:08:35;5.10;;;3.90;;
8665;SDS011;4370;48.916;8.380;2023-02-22T02:11:04;5.80;;;3.87;;
8665;SDS011;4370;48.916;8.380;2023-02-22T02:13:31;4.70;;;3.40;;
8665;SDS011;4370;48.916;8.380;2023-02-22T02:15:58;4.00;;;3.40;;
8665;SDS011;4370;48.916;8.380;2023-02-22T02:18:24;4.90;;;3.60;;
8665;SDS011;4370;48.916;8.380;2023-02-22T02:23:47;4.70;;;3.40;;
8665;SDS011;4370;48.916;8.380;2023-02-22T02:29:11;6.07;;;3.87;;
8665;SDS011;4370;48.916;8.380;2023-02-22T02:37:09;10.47;;;4.70;;
8665;SDS011;4370;48.916;8.380;2023-02-22T02:40:05;8.17;;;3.80;;
8665;SDS011;4370;48.916;8.380;2023-02-22T02:42:58;3.70;;;3.10;;
8665;SDS011;4370;48.916;8.380;2023-02-22T02:45:29;4.43;;;3.60;;
8665;SDS011;4370;48.916;8.380;2023-02-22T02:48:01;3.87;;;3.10;;
8665;SDS011;4370;48.916;8.380;2023-02-22T02:50:35;4.40;;;3.10;;
8665;SDS011;4370;48.916;8.380;2023-02-22T02:53:06;5.37;;;3.17;;
8665;SDS011;4370;48.916;8.380;2023-02-22T02:55:33;6.40;;;3.50;;
8665;SDS011;4370;48.916;8.380;2023-02-22T02:58:04;4.90;;;3.60;;
8665;SDS011;4370;48.916;8.380;2023-02-22T03:00:32;4.43;;;3.50;;
8665;SDS011;4370;48.916;8.380;2023-02-22T03:10:51;5.30;;;3.57;;
8665;SDS011;4370;48.916;8.380;2023-02-22T03:13:35;4.83;;;3.43;;
8665;SDS011;4370;48.916;8.380;2023-02-22T03:21:45;5.53;;;4.07;;
8665;SDS011;4370;48.916;8.380;2023-02-22T03:27:20;5.90;;;4.20;;
8665;SDS011;4370;48.916;8.380;2023-02-22T03:29:52;5.07;;;4.00;;
8665;SDS011;4370;48.916;8.380;2023-02-22T03:32:22;5.90;;;3.47;;
8665;SDS011;4370;48.916;8.380;2023-02-22T03:34:53;4.50;;;3.60;;
8665;SDS011;4370;48.916;8.380;2023-02-22T03:37:40;6.50;;;3.93;;
8665;SDS011;4370;48.916;8.380;2023-02-22T03:40:10;5.20;;;3.90;;
8665;SDS011;4370;48.916;8.380;2023-02-22T03:42:39;7.37;;;4.70;;
8665;SDS011;4370;48.916;8.380;2023-02-22T03:45:12;6.23;;;4.17;;
8665;SDS011;4370;48.916;8.380;2023-02-22T03:47:40;5.93;;;4.00;;
8665;SDS011;4370;48.916;8.380;2023-02-22T03:52:42;5.17;;;3.97;;
8665;SDS011;4370;48.916;8.380;2023-02-22T03:55:09;6.90;;;4.40;;
8665;SDS011;4370;48.916;8.380;2023-02-22T03:57:37;9.30;;;4.63;;
8665;SDS011;4370;48.916;8.380;2023-02-22T04:00:06;5.57;;;3.80;;
8665;SDS011;4370;48.916;8.380;2023-02-22T04:02:34;5.77;;;3.90;;
8665;SDS011;4370;48.916;8.380;2023-02-22T04:04:59;6.43;;;3.83;;
8665;SDS011;4370;48.916;8.380;2023-02-22T04:07:25;5.97;;;3.97;;
8665;SDS011;4370;48.916;8.380;2023-02-22T04:09:51;6.73;;;4.23;;
8665;SDS011;4370;48.916;8.380;2023-02-22T04:12:17;7.10;;;4.20;;
8665;SDS011;4370;48.916;8.380;2023-02-22T04:14:43;6.80;;;4.47;;
8665;SDS011;4370;48.916;8.380;2023-02-22T04:17:09;6.83;;;4.57;;
8665;SDS011;4370;48.916;8.380;2023-02-22T04:19:35;6.47;;;4.30;;
8665;SDS011;4370;48.916;8.380;2023-02-22T04:22:01;8.57;;;5.10;;
8665;SDS011;4370;48.916;8.380;2023-02-22T04:24:27;6.40;;;4.63;;
8665;SDS011;4370;48.916;8.380;2023-02-22T04:26:53;8.17;;;4.87;;
8665;SDS011;4370;48.916;8.380;2023-02-22T04:29:19;7.20;;;4.23;;
8665;SDS011;4370;48.916;8.380;2023-02-22T04:31:45;7.70;;;4.53;;
8665;SDS011;4370;48.916;8.380;2023-02-22T04:34:11;11.10;;;5.70;;
8665;SDS011;4370;48.916;8.380;2023-02-22T04:36:37;7.60;;;5.23;;
8665;SDS011;4370;48.916;8.380;2023-02-22T04:39:06;6.03;;;4.17;;
8665;SDS011;4370;48.916;8.380;2023-02-22T04:41:32;7.70;;;4.73;;
8665;SDS011;4370;48.916;8.380;2023-02-22T04:43:58;6.87;;;4.70;;
8665;SDS011;4370;48.916;8.380;2023-02-22T04:46:24;5.90;;;4.13;;
8665;SDS011;4370;48.916;8.380;2023-02-22T04:48:50;5.87;;;4.40;;
8665;SDS011;4370;48.916;8.380;2023-02-22T04:51:16;6.73;;;4.50;;
8665;SDS011;4370;48.916;8.380;2023-02-22T04:53:43;6.37;;;4.40;;
8665;SDS011;4370;48.916;8.380;2023-02-22T04:56:09;8.73;;;4.93;;
8665;SDS011;4370;48.916;8.380;2023-02-22T04:58:35;7.93;;;5.10;;
8665;SDS011;4370;48.916;8.380;2023-02-22T05:01:01;9.77;;;5.63;;
8665;SDS011;4370;48.916;8.380;2023-02-22T05:03:27;8.83;;;4.60;;
8665;SDS011;4370;48.916;8.380;2023-02-22T05:05:53;10.03;;;5.27;;
8665;SDS011;4370;48.916;8.380;2023-02-22T05:08:19;9.50;;;5.13;;
8665;SDS011;4370;48.916;8.380;2023-02-22T05:10:45;6.40;;;4.53;;
8665;SDS011;4370;48.916;8.380;2023-02-22T05:13:11;6.57;;;4.70;;
8665;SDS011;4370;48.916;8.380;2023-02-22T05:15:37;7.50;;;5.20;;
8665;SDS011;4370;48.916;8.380;2023-02-22T05:18:03;6.30;;;4.40;;
8665;SDS011;4370;48.916;8.380;2023-02-22T05:20:30;8.23;;;5.50;;
8665;SDS011;4370;48.916;8.380;2023-02-22T05:22:59;9.77;;;5.60;;
8665;SDS011;4370;48.916;8.380;2023-02-22T05:25:26;9.87;;;5.10;;
8665;SDS011;4370;48.916;8.380;2023-02-22T05:27:53;8.60;;;5.17;;
8665;SDS011;4370;48.916;8.380;2023-02-22T05:30:28;8.87;;;4.83;;
8665;SDS011;4370;48.916;8.380;2023-02-22T05:32:57;8.33;;;5.53;;
8665;SDS011;4370;48.916;8.380;2023-02-22T05:35:23;6.63;;;4.67;;
8665;SDS011;4370;48.916;8.380;2023-02-22T05:37:49;7.43;;;5.37;;
8665;SDS011;4370;48.916;8.380;2023-02-22T05:40:19;7.47;;;5.43;;
8665;SDS011;4370;48.916;8.380;2023-02-22T05:42:47;8.40;;;5.20;;
8665;SDS011;4370;48.916;8.380;2023-02-22T05:45:14;11.67;;;7.37;;
8665;SDS011;4370;48.916;8.380;2023-02-22T05:47:42;10.80;;;6.10;;
8665;SDS011;4370;48.916;8.380;2023-02-22T05:50:08;7.63;;;5.60;;
8665;SDS011;4370;48.916;8.380;2023-02-22T05:52:33;9.30;;;6.40;;
8665;SDS011;4370;48.916;8.380;2023-02-22T05:54:59;8.37;;;6.00;;
8665;SDS011;4370;48.916;8.380;2023-02-22T05:57:25;8.83;;;5.60;;
8665;SDS011;4370;48.916;8.380;2023-02-22T05:59:51;7.50;;;5.97;;
8665;SDS011;4370;48.916;8.380;2023-02-22T06:02:17;6.83;;;5.10;;
8665;SDS011;4370;48.916;8.380;2023-02-22T06:04:44;8.73;;;5.50;;
8665;SDS011;4370;48.916;8.380;2023-02-22T06:07:10;10.00;;;5.80;;
8665;SDS011;4370;48.916;8.380;2023-02-22T06:09:36;9.80;;;6.20;;
8665;SDS011;4370;48.916;8.380;2023-02-22T06:12:02;8.57;;;5.80;;
8665;SDS011;4370;48.916;8.380;2023-02-22T06:14:28;7.43;;;5.93;;
8665;SDS011;4370;48.916;8.380;2023-02-22T06:16:55;8.50;;;6.03;;
8665;SDS011;4370;48.916;8.380;2023-02-22T06:19:22;7.73;;;5.37;;
8665;SDS011;4370;48.916;8.380;2023-02-22T06:21:51;7.70;;;5.00;;
8665;SDS011;4370;48.916;8.380;2023-02-22T06:24:21;10.67;;;5.97;;
8665;SDS011;4370;48.916;8.380;2023-02-22T06:26:56;9.50;;;5.40;;
8665;SDS011;4370;48.916;8.380;2023-02-22T06:29:24;9.47;;;7.20;;
8665;SDS011;4370;48.916;8.380;2023-02-22T06:31:50;7.57;;;5.73;;
8665;SDS011;4370;48.916;8.380;2023-02-22T06:34:16;13.87;;;7.60;;
8665;SDS011;4370;48.916;8.380;2023-02-22T06:36:42;21.33;;;12.83;;
8665;SDS011;4370;48.916;8.380;2023-02-22T06:39:08;43.43;;;23.67;;
8665;SDS011;4370;48.916;8.380;2023-02-22T06:41:39;36.13;;;20.43;;
8665;SDS011;4370;48.916;8.380;2023-02-22T06:44:05;43.77;;;24.23;;
8665;SDS011;4370;48.916;8.380;2023-02-22T06:46:31;38.23;;;22.33;;
8665;SDS011;4370;48.916;8.380;2023-02-22T06:48:57;36.57;;;23.03;;
8665;SDS011;4370;48.916;8.380;2023-02-22T06:51:26;46.20;;;26.90;;
8665;SDS011;4370;48.916;8.380;2023-02-22T06:53:53;35.03;;;22.63;;
8665;SDS011;4370;48.916;8.380;2023-02-22T06:56:19;26.57;;;16.20;;
8665;SDS011;4370;48.916;8.380;2023-02-22T06:58:45;27.57;;;17.70;;
8665;SDS011;4370;48.916;8.380;2023-02-22T07:01:13;24.00;;;15.33;;
8665;SDS011;4370;48.916;8.380;2023-02-22T07:03:39;24.83;;;15.67;;
8665;SDS011;4370;48.916;8.380;2023-02-22T07:06:06;22.57;;;12.87;;
8665;SDS011;4370;48.916;8.380;2023-02-22T07:08:32;21.80;;;13.10;;
8665;SDS011;4370;48.916;8.380;2023-02-22T07:10:58;18.33;;;12.03;;
8665;SDS011;4370;48.916;8.380;2023-02-22T07:13:23;18.13;;;12.17;;
8665;SDS011;4370;48.916;8.380;2023-02-22T07:15:50;14.63;;;9.60;;
8665;SDS011;4370;48.916;8.380;2023-02-22T07:18:17;13.40;;;9.23;;
8665;SDS011;4370;48.916;8.380;2023-02-22T07:20:43;12.67;;;8.50;;
8665;SDS011;4370;48.916;8.380;2023-02-22T07:23:09;13.57;;;8.40;;
8665;SDS011;4370;48.916;8.380;2023-02-22T07:25:37;10.93;;;7.77;;
8665;SDS011;4370;48.916;8.380;2023-02-22T07:28:03;10.53;;;7.43;;
8665;SDS011;4370;48.916;8.380;2023-02-22T07:30:30;11.17;;;7.40;;
8665;SDS011;4370;48.916;8.380;2023-02-22T07:32:58;10.33;;;7.13;;
8665;SDS011;4370;48.916;8.380;2023-02-22T07:35:27;10.67;;;7.27;;
8665;SDS011;4370;48.916;8.380;2023-02-22T07:37:54;7.63;;;6.40;;
8665;SDS011;4370;48.916;8.380;2023-02-22T07:40:20;8.83;;;6.63;;
8665;SDS011;4370;48.916;8.380;2023-02-22T07:42:49;7.63;;;5.93;;
8665;SDS011;4370;48.916;8.380;2023-02-22T07:45:24;9.27;;;6.57;;
8665;SDS011;4370;48.916;8.380;2023-02-22T07:47:50;9.13;;;6.17;;
8665;SDS011;4370;48.916;8.380;2023-02-22T07:50:17;9.17;;;5.67;;
8665;SDS011;4370;48.916;8.380;2023-02-22T07:52:47;7.20;;;5.40;;
8665;SDS011;4370;48.916;8.380;2023-02-22T07:55:15;8.87;;;5.73;;
8665;SDS011;4370;48.916;8.380;2023-02-22T07:57:42;7.03;;;5.40;;
8665;SDS011;4370;48.916;8.380;2023-02-22T08:00:09;8.40;;;5.40;;
8665;SDS011;4370;48.916;8.380;2023-02-22T08:02:35;8.70;;;5.37;;
8665;SDS011;4370;48.916;8.380;2023-02-22T08:05:01;7.77;;;5.40;;
8665;SDS011;4370;48.916;8.380;2023-02-22T08:07:27;10.67;;;6.10;;
8665;SDS011;4370;48.916;8.380;2023-02-22T08:09:53;9.73;;;6.07;;
8665;SDS011;4370;48.916;8.380;2023-02-22T08:12:19;10.87;;;7.67;;
8665;SDS011;4370;48.916;8.380;2023-02-22T08:14:45;10.83;;;7.70;;
8665;SDS011;4370;48.916;8.380;2023-02-22T08:17:10;12.73;;;8.30;;
8665;SDS011;4370;48.916;8.380;2023-02-22T08:19:36;11.60;;;7.43;;
8665;SDS011;4370;48.916;8.380;2023-02-22T08:22:03;11.67;;;8.57;;
8665;SDS011;4370;48.916;8.380;2023-02-22T08:24:29;9.57;;;7.57;;
8665;SDS011;4370;48.916;8.380;2023-02-22T08:26:56;11.57;;;7.33;;
8665;SDS011;4370;48.916;8.380;2023-02-22T08:29:22;11.13;;;7.60;;
8665;SDS011;4370;48.916;8.380;2023-02-22T08:31:51;15.47;;;7.30;;
8665;SDS011;4370;48.916;8.380;2023-02-22T08:34:18;9.40;;;6.63;;
8665;SDS011;4370;48.916;8.380;2023-02-22T08:36:44;8.70;;;6.23;;
8665;SDS011;4370;48.916;8.380;2023-02-22T08:39:10;8.50;;;6.17;;
8665;SDS011;4370;48.916;8.380;2023-02-22T08:41:36;13.03;;;5.73;;
8665;SDS011;4370;48.916;8.380;2023-02-22T08:44:02;8.73;;;5.90;;
8665;SDS011;4370;48.916;8.380;2023-02-22T08:46:27;9.70;;;6.40;;
8665;SDS011;4370;48.916;8.380;2023-02-22T08:48:53;8.60;;;5.80;;
8665;SDS011;4370;48.916;8.380;2023-02-22T08:51:19;8.10;;;5.90;;
8665;SDS011;4370;48.916;8.380;2023-02-22T08:53:45;7.73;;;5.70;;
8665;SDS011;4370;48.916;8.380;2023-02-22T08:56:11;8.47;;;5.93;;
8665;SDS011;4370;48.916;8.380;2023-02-22T08:58:37;8.07;;;6.40;;
8665;SDS011;4370;48.916;8.380;2023-02-22T09:01:03;9.10;;;5.87;;
8665;SDS011;4370;48.916;8.380;2023-02-22T09:03:29;9.03;;;5.87;;
8665;SDS011;4370;48.916;8.380;2023-02-22T09:05:55;8.87;;;5.80;;
8665;SDS011;4370;48.916;8.380;2023-02-22T09:08:23;6.63;;;5.47;;
8665;SDS011;4370;48.916;8.380;2023-02-22T09:10:49;7.00;;;5.20;;
8665;SDS011;4370;48.916;8.380;2023-02-22T09:13:15;10.93;;;5.50;;
8665;SDS011;4370;48.916;8.380;2023-02-22T09:15:41;7.73;;;5.57;;
8665;SDS011;4370;48.916;8.380;2023-02-22T09:18:09;6.90;;;5.37;;
8665;SDS011;4370;48.916;8.380;2023-02-22T09:20:38;11.30;;;5.17;;
8665;SDS011;4370;48.916;8.380;2023-02-22T09:23:04;8.50;;;4.70;;
8665;SDS011;4370;48.916;8.380;2023-02-22T09:25:30;11.47;;;5.33;;
8665;SDS011;4370;48.916;8.380;2023-02-22T09:27:58;7.00;;;5.03;;
8665;SDS011;4370;48.916;8.380;2023-02-22T09:30:26;10.63;;;5.60;;
8665;SDS011;4370;48.916;8.380;2023-02-22T09:32:57;6.90;;;5.20;;
8665;SDS011;4370;48.916;8.380;2023-02-22T09:35:25;9.10;;;5.50;;
8665;SDS011;4370;48.916;8.380;2023-02-22T09:37:54;8.00;;;5.37;;
8665;SDS011;4370;48.916;8.380;2023-02-22T09:40:20;8.40;;;6.27;;
8665;SDS011;4370;48.916;8.380;2023-02-22T09:43:00;8.20;;;5.77;;
8665;SDS011;4370;48.916;8.380;2023-02-22T09:45:31;9.43;;;5.87;;
8665;SDS011;4370;48.916;8.380;2023-02-22T09:48:09;9.10;;;5.77;;
8665;SDS011;4370;48.916;8.380;2023-02-22T09:50:39;8.40;;;6.00;;
8665;SDS011;4370;48.916;8.380;2023-02-22T09:55:57;7.23;;;5.43;;
8665;SDS011;4370;48.916;8.380;2023-02-22T09:58:32;6.03;;;4.70;;
8665;SDS011;4370;48.916;8.380;2023-02-22T10:01:08;8.47;;;4.80;;
8665;SDS011;4370;48.916;8.380;2023-02-22T10:06:22;6.33;;;4.23;;
8665;SDS011;4370;48.916;8.380;2023-02-22T10:08:50;6.63;;;4.23;;
8665;SDS011;4370;48.916;8.380;2023-02-22T10:16:50;5.70;;;4.23;;
8665;SDS011;4370;48.916;8.380;2023-02-22T10:19:39;6.63;;;4.63;;
8665;SDS011;4370;48.916;8.380;2023-02-22T10:25:11;13.50;;;5.93;;
8665;SDS011;4370;48.916;8.380;2023-02-22T10:27:44;8.30;;;4.80;;
8665;SDS011;4370;48.916;8.380;2023-02-22T10:30:33;11.33;;;5.27;;
8665;SDS011;4370;48.916;8.380;2023-02-22T10:33:05;7.63;;;5.17;;
8665;SDS011;4370;48.916;8.380;2023-02-22T10:35:46;8.73;;;5.70;;
8665;SDS011;4370;48.916;8.380;2023-02-22T10:38:14;11.13;;;6.00;;
8665;SDS011;4370;48.916;8.380;2023-02-22T10:40:48;7.33;;;5.40;;
8665;SDS011;4370;48.916;8.380;2023-02-22T10:43:18;7.27;;;5.73;;
8665;SDS011;4370;48.916;8.380;2023-02-22T10:45:45;10.00;;;5.80;;
8665;SDS011;4370;48.916;8.380;2023-02-22T10:48:13;9.13;;;5.67;;
8665;SDS011;4370;48.916;8.380;2023-02-22T10:50:43;8.07;;;5.53;;
8665;SDS011;4370;48.916;8.380;2023-02-22T10:53:10;7.63;;;5.13;;
8665;SDS011;4370;48.916;8.380;2023-02-22T11:01:21;10.10;;;5.97;;
8665;SDS011;4370;48.916;8.380;2023-02-22T11:03:57;6.43;;;4.80;;
8665;SDS011;4370;48.916;8.380;2023-02-22T11:06:26;7.23;;;4.63;;
8665;SDS011;4370;48.916;8.380;2023-02-22T11:09:12;8.50;;;5.93;;
8665;SDS011;4370;48.916;8.380;2023-02-22T11:11:39;12.43;;;5.90;;
8665;SDS011;4370;48.916;8.380;2023-02-22T11:14:07;8.80;;;5.33;;
8665;SDS011;4370;48.916;8.380;2023-02-22T11:19:06;7.77;;;5.90;;
8665;SDS011;4370;48.916;8.380;2023-02-22T11:21:41;11.90;;;5.77;;
8665;SDS011;4370;48.916;8.380;2023-02-22T11:24:09;9.43;;;6.73;;
8665;SDS011;4370;48.916;8.380;2023-02-22T11:26:39;8.80;;;5.60;;
8665;SDS011;4370;48.916;8.380;2023-02-22T11:29:11;10.03;;;6.17;;
8665;SDS011;4370;48.916;8.380;2023-02-22T11:31:43;9.93;;;6.40;;
8665;SDS011;4370;48.916;8.380;2023-02-22T11:37:16;8.97;;;6.57;;
8665;SDS011;4370;48.916;8.380;2023-02-22T11:39:46;12.50;;;6.27;;
8665;SDS011;4370;48.916;8.380;2023-02-22T11:42:20;16.97;;;6.90;;
8665;SDS011;4370;48.916;8.380;2023-02-22T11:47:57;13.67;;;7.50;;
8665;SDS011;4370;48.916;8.380;2023-02-22T11:50:27;12.80;;;6.43;;
8665;SDS011;4370;48.916;8.380;2023-02-22T11:53:20;9.60;;;6.47;;
8665;SDS011;4370;48.916;8.380;2023-02-22T11:58:45;9.50;;;6.20;;
8665;SDS011;4370;48.916;8.380;2023-02-22T12:07:36;8.77;;;5.93;;
8665;SDS011;4370;48.916;8.380;2023-02-22T12:13:34;10.30;;;6.33;;
8665;SDS011;4370;48.916;8.380;2023-02-22T12:18:48;9.53;;;5.73;;
8665;SDS011;4370;48.916;8.380;2023-02-22T12:21:25;8.57;;;5.83;;
8665;SDS011;4370;48.916;8.380;2023-02-22T12:23:56;10.87;;;5.60;;
8665;SDS011;4370;48.916;8.380;2023-02-22T12:26:30;10.07;;;6.10;;
8665;SDS011;4370;48.916;8.380;2023-02-22T12:29:05;13.50;;;5.63;;
8665;SDS011;4370;48.916;8.380;2023-02-22T12:36:52;10.43;;;5.90;;
8665;SDS011;4370;48.916;8.380;2023-02-22T12:42:18;9.90;;;6.30;;
8665;SDS011;4370;48.916;8.380;2023-02-22T12:44:58;9.13;;;6.60;;
8665;SDS011;4370;48.916;8.380;2023-02-22T12:47:36;12.97;;;6.83;;
8665;SDS011;4370;48.916;8.380;2023-02-22T12:50:25;8.13;;;6.27;;
8665;SDS011;4370;48.916;8.380;2023-02-22T12:52:56;11.23;;;7.50;;
8665;SDS011;4370;48.916;8.380;2023-02-22T13:00:38;13.23;;;8.23;;
8665;SDS011;4370;48.916;8.380;2023-02-22T13:05:43;11.70;;;8.07;;
8665;SDS011;4370;48.916;8.380;2023-02-22T13:08:32;10.93;;;7.47;;
8665;SDS011;4370;48.916;8.380;2023-02-22T13:14:26;13.10;;;8.50;;
8665;SDS011;4370;48.916;8.380;2023-02-22T13:25:23;11.90;;;8.67;;
8665;SDS011;4370;48.916;8.380;2023-02-22T13:33:43;13.57;;;8.63;;
8665;SDS011;4370;48.916;8.380;2023-02-22T13:36:24;17.67;;;9.50;;
8665;SDS011;4370;48.916;8.380;2023-02-22T13:39:17;12.57;;;8.60;;
8665;SDS011;4370;48.916;8.380;2023-02-22T13:42:05;13.63;;;8.27;;
8665;SDS011;4370;48.916;8.380;2023-02-22T13:50:42;14.37;;;8.50;;
8665;SDS011;4370;48.916;8.380;2023-02-22T13:53:23;14.83;;;8.30;;
8665;SDS011;4370;48.916;8.380;2023-02-22T13:55:54;15.90;;;8.60;;
8665;SDS011;4370;48.916;8.380;2023-02-22T13:58:23;14.40;;;7.30;;
8665;SDS011;4370;48.916;8.380;2023-02-22T14:00:50;12.37;;;9.10;;
8665;SDS011;4370;48.916;8.380;2023-02-22T14:03:28;14.30;;;8.33;;
8665;SDS011;4370;48.916;8.380;2023-02-22T14:06:28;15.70;;;8.40;;
8665;SDS011;4370;48.916;8.380;2023-02-22T14:09:00;12.73;;;8.97;;
8665;SDS011;4370;48.916;8.380;2023-02-22T14:16:27;12.27;;;8.67;;
8665;SDS011;4370;48.916;8.380;2023-02-22T14:21:53;16.00;;;9.50;;
8665;SDS011;4370;48.916;8.380;2023-02-22T14:24:19;12.27;;;8.70;;
8665;SDS011;4370;48.916;8.380;2023-02-22T14:26:59;15.40;;;9.63;;
8665;SDS011;4370;48.916;8.380;2023-02-22T14:29:27;15.73;;;9.67;;
8665;SDS011;4370;48.916;8.380;2023-02-22T14:34:46;13.43;;;9.30;;
8665;SDS011;4370;48.916;8.380;2023-02-22T14:37:25;14.57;;;10.50;;
8665;SDS011;4370;48.916;8.380;2023-02-22T14:39:59;12.00;;;9.47;;
8665;SDS011;4370;48.916;8.380;2023-02-22T14:42:50;16.20;;;9.57;;
8665;SDS011;4370;48.916;8.380;2023-02-22T14:45:39;19.70;;;10.40;;
8665;SDS011;4370;48.916;8.380;2023-02-22T14:48:32;14.20;;;9.90;;
8665;SDS011;4370;48.916;8.380;2023-02-22T14:54:05;14.83;;;9.50;;
8665;SDS011;4370;48.916;8.380;2023-02-22T14:59:36;16.70;;;10.27;;
8665;SDS011;4370;48.916;8.380;2023-02-22T15:02:11;13.33;;;9.50;;
8665;SDS011;4370;48.916;8.380;2023-02-22T15:04:38;17.50;;;9.87;;
8665;SDS011;4370;48.916;8.380;2023-02-22T15:07:27;19.33;;;11.87;;
8665;SDS011;4370;48.916;8.380;2023-02-22T15:10:55;15.03;;;9.30;;
8665;SDS011;4370;48.916;8.380;2023-02-22T15:15:32;13.13;;;9.10;;
8665;SDS011;4370;48.916;8.380;2023-02-22T15:18:02;12.77;;;9.30;;
8665;SDS011;4370;48.916;8.380;2023-02-22T15:20:30;13.63;;;9.60;;
8665;SDS011;4370;48.916;8.380;2023-02-22T15:22:59;12.90;;;9.20;;
8665;SDS011;4370;48.916;8.380;2023-02-22T15:25:26;18.27;;;11.30;;
8665;SDS011;4370;48.916;8.380;2023-02-22T15:27:54;14.47;;;10.37;;
8665;SDS011;4370;48.916;8.380;2023-02-22T15:30:26;19.60;;;11.87;;
8665;SDS011;4370;48.916;8.380;2023-02-22T15:32:53;18.43;;;11.30;;
8665;SDS011;4370;48.916;8.380;2023-02-22T15:38:03;16.37;;;10.20;;
8665;SDS011;4370;48.916;8.380;2023-02-22T15:40:30;17.63;;;12.67;;
8665;SDS011;4370;48.916;8.380;2023-02-22T15:43:00;15.77;;;11.33;;
8665;SDS011;4370;48.916;8.380;2023-02-22T15:45:28;16.07;;;11.87;;
8665;SDS011;4370;48.916;8.380;2023-02-22T15:47:56;16.73;;;12.20;;
8665;SDS011;4370;48.916;8.380;2023-02-22T15:53:01;18.57;;;12.40;;
8665;SDS011;4370;48.916;8.380;2023-02-22T15:55:36;18.33;;;11.77;;
8665;SDS011;4370;48.916;8.380;2023-02-22T16:00:36;15.00;;;10.70;;
8665;SDS011;4370;48.916;8.380;2023-02-22T16:03:04;17.00;;;11.03;;
8665;SDS011;4370;48.916;8.380;2023-02-22T16:05:36;19.47;;;11.43;;
8665;SDS011;4370;48.916;8.380;2023-02-22T16:08:07;13.87;;;10.17;;
8665;SDS011;4370;48.916;8.380;2023-02-22T16:10:39;15.70;;;10.93;;
8665;SDS011;4370;48.916;8.380;2023-02-22T16:13:38;16.10;;;11.17;;
8665;SDS011;4370;48.916;8.380;2023-02-22T16:18:45;13.93;;;9.37;;
8665;SDS011;4370;48.916;8.380;2023-02-22T16:21:12;15.63;;;10.47;;
8665;SDS011;4370;48.916;8.380;2023-02-22T16:23:55;16.43;;;11.07;;
8665;SDS011;4370;48.916;8.380;2023-02-22T16:26:29;15.27;;;11.03;;
8665;SDS011;4370;48.916;8.380;2023-02-22T16:31:22;19.50;;;11.30;;
8665;SDS011;4370;48.916;8.380;2023-02-22T16:33:51;15.77;;;10.87;;
8665;SDS011;4370;48.916;8.380;2023-02-22T16:36:18;15.43;;;10.10;;
8665;SDS011;4370;48.916;8.380;2023-02-22T16:38:46;16.33;;;11.03;;
8665;SDS011;4370;48.916;8.380;2023-02-22T16:41:13;19.50;;;11.40;;
8665;SDS011;4370;48.916;8.380;2023-02-22T16:43:43;15.30;;;10.27;;
8665;SDS011;4370;48.916;8.380;2023-02-22T16:46:11;18.13;;;10.87;;
8665;SDS011;4370;48.916;8.380;2023-02-22T16:48:38;15.18;;;10.23;;
8665;SDS011;4370;48.916;8.380;2023-02-22T16:51:14;17.53;;;11.53;;
8665;SDS011;4370;48.916;8.380;2023-02-22T16:53:42;22.30;;;11.73;;
8665;SDS011;4370;48.916;8.380;2023-02-22T16:56:09;17.47;;;11.07;;
8665;SDS011;4370;48.916;8.380;2023-02-22T16:58:39;16.87;;;10.50;;
8665;SDS011;4370;48.916;8.380;2023-02-22T17:01:06;16.70;;;9.57;;
8665;SDS011;4370;48.916;8.380;2023-02-22T17:03:32;14.90;;;9.67;;
8665;SDS011;4370;48.916;8.380;2023-02-22T17:05:58;15.13;;;10.20;;
8665;SDS011;4370;48.916;8.380;2023-02-22T17:08:23;11.63;;;8.17;;
8665;SDS011;4370;48.916;8.380;2023-02-22T17:10:50;12.60;;;8.67;;
8665;SDS011;4370;48.916;8.380;2023-02-22T17:13:19;11.60;;;8.80;;
8665;SDS011;4370;48.916;8.380;2023-02-22T17:15:48;18.33;;;11.57;;
8665;SDS011;4370;48.916;8.380;2023-02-22T17:18:14;15.93;;;11.23;;
8665;SDS011;4370;48.916;8.380;2023-02-22T17:20:46;12.27;;;9.87;;
8665;SDS011;4370;48.916;8.380;2023-02-22T17:23:12;13.13;;;9.67;;
8665;SDS011;4370;48.916;8.380;2023-02-22T17:25:40;16.60;;;10.77;;
8665;SDS011;4370;48.916;8.380;2023-02-22T17:28:09;19.63;;;12.77;;
8665;SDS011;4370;48.916;8.380;2023-02-22T17:30:36;13.67;;;10.60;;
8665;SDS011;4370;48.916;8.380;2023-02-22T17:33:04;17.67;;;12.07;;
8665;SDS011;4370;48.916;8.380;2023-02-22T17:35:32;15.33;;;11.27;;
8665;SDS011;4370;48.916;8.380;2023-02-22T17:38:00;15.00;;;10.67;;
8665;SDS011;4370;48.916;8.380;2023-02-22T17:40:29;13.60;;;10.20;;
8665;SDS011;4370;48.916;8.380;2023-02-22T17:42:56;13.63;;;9.93;;
8665;SDS011;4370;48.916;8.380;2023-02-22T17:45:22;17.43;;;12.27;;
8665;SDS011;4370;48.916;8.380;2023-02-22T17:47:49;17.17;;;11.80;;
8665;SDS011;4370;48.916;8.380;2023-02-22T17:50:16;19.77;;;13.53;;